VVPB/HUI METAR and TAF weather

Enter ICAO airport designator
Station Type Date Time Source
VVPB METAR 2018/12/12 07:30 UTC NOAA

VVPB 120730Z 05009KT 8000 SCT020 BKN035 24/22 Q1018 TEMPO 3000 RA


Station Type Date Time Source
VVPB Decoded METAR 2018/12/12 07:30 UTC NOAA

Hue, Vietnam (VVPB) 16-24N 107-41E 17M
Dec 12, 2018 - 02:30 AM EST / 2018.12.12 0730 UTC
Wind: from the NE (050 degrees) at 10 MPH (9 KT):0
Visibility: 4 mile(s):0
Sky conditions: mostly cloudy
Temperature: 75 F (24 C)
Dew Point: 71 F (22 C)
Relative Humidity: 88%
Pressure (altimeter): 30.06 in. Hg (1018 hPa)
ob: VVPB 120730Z 05009KT 8000 SCT020 BKN035 24/22 Q1018 TEMPO 3000 RA
cycle: 7

Station Type Date Time Source
VVPB TAF 2018/12/12 06:00 UTC NOAA

TAF VVPB 120500Z 1206/1306 05010KT 6000 SCT010 BKN040
TEMPO 1206/1210 2000 RA BR
TEMPO 1210/1216 1400 +RA BR
TEMPO 1216/1301 1800 RA BR
TEMPO 1301/1305 3200 RA BR


Example: see airport list